Time;durP1;ratioP1;P1;durP2;ratioP2;P2;SDS_P1;SDS_P2;PMS_P1;PMS_P2;Temp;Humidity;BMP_temperature;BMP_pressure;BME280_temperature;BME280_humidity;BME280_pressure;Samples;Min_cycle;Max_cycle;Signal;HPM_P1;HPM_P2
2022/08/01 00:01:51;;;;;;;1.27;1.17;;;;;;;16.47;77.92;95262.48;1779500;81;21043;-65
2022/08/01 00:04:17;;;;;;;2.27;1.10;;;;;;;16.48;77.69;95262.87;1779348;80;21007;-65
2022/08/01 00:06:44;;;;;;;1.40;1.30;;;;;;;16.48;77.21;95262.87;1779415;81;21021;-65
2022/08/01 00:09:11;;;;;;;1.50;1.40;;;;;;;16.52;77.18;95265.32;1779456;81;21465;-65
2022/08/01 00:11:37;;;;;;;1.47;1.37;;;;;;;16.58;76.66;95269.05;1779323;81;21445;-65
2022/08/01 00:14:04;;;;;;;1.50;1.40;;;;;;;16.64;76.36;95270.07;1779546;81;20998;-66
2022/08/01 00:16:31;;;;;;;1.22;1.12;;;;;;;16.70;76.34;95272.05;1779378;81;21015;-65
2022/08/01 00:18:57;;;;;;;2.65;1.32;;;;;;;16.73;75.97;95270.56;1779663;81;20948;-65
2022/08/01 00:21:24;;;;;;;1.90;1.27;;;;;;;16.75;75.67;95263.36;1779161;81;20991;-65
2022/08/01 00:23:51;;;;;;;1.72;1.32;;;;;;;16.77;75.55;95266.83;1779069;81;21011;-65
2022/08/01 00:26:18;;;;;;;1.20;1.20;;;;;;;16.81;75.42;95273.78;1779258;81;21003;-65
2022/08/01 00:28:45;;;;;;;1.95;1.30;;;;;;;16.85;75.46;95271.34;1779439;81;20987;-65
2022/08/01 00:31:12;;;;;;;4.00;1.35;;;;;;;16.89;75.15;95273.41;1778959;80;21058;-65
2022/08/01 00:33:38;;;;;;;1.37;1.27;;;;;;;16.91;75.17;95272.39;1779408;81;20979;-65
2022/08/01 00:36:05;;;;;;;2.27;1.20;;;;;;;16.93;75.21;95269.16;1779389;81;21034;-65
2022/08/01 00:38:32;;;;;;;1.70;1.42;;;;;;;16.96;75.18;95270.37;1779474;81;20990;-65
2022/08/01 00:40:59;;;;;;;1.32;1.22;;;;;;;17.01;75.02;95263.01;1779534;81;21015;-65
2022/08/01 00:43:26;;;;;;;2.95;1.20;;;;;;;17.06;74.69;95268.12;1779394;81;21018;-65
2022/08/01 00:45:53;;;;;;;1.67;1.30;;;;;;;17.04;74.68;95261.99;1779077;80;21090;-65
2022/08/01 00:48:19;;;;;;;1.65;1.50;;;;;;;16.97;74.58;95260.09;1779505;81;21012;-65
2022/08/01 00:50:47;;;;;;;1.40;1.30;;;;;;;16.95;74.79;95264.62;1779449;80;21066;-65
2022/08/01 00:53:14;;;;;;;2.67;1.42;;;;;;;16.96;74.92;95268.14;1779422;81;21050;-65
2022/08/01 00:55:41;;;;;;;1.87;1.40;;;;;;;16.90;75.04;95265.80;1779561;81;21065;-65
2022/08/01 00:58:08;;;;;;;2.10;1.55;;;;;;;16.92;74.98;95266.11;1779486;80;21508;-65
2022/08/01 01:00:36;;;;;;;1.50;1.40;;;;;;;16.91;74.90;95262.17;1779497;81;21532;-65
2022/08/01 01:03:03;;;;;;;2.70;1.30;;;;;;;16.90;74.97;95254.66;1779552;81;21060;-65
2022/08/01 01:05:35;;;;;;;2.80;1.45;;;;;;;16.89;75.05;95254.75;1779663;81;21496;-65
2022/08/01 01:08:16;;;;;;;1.70;1.60;;;;;;;16.90;75.03;95257.80;1778608;81;21011;-65
2022/08/01 01:10:56;;;;;;;1.50;1.40;;;;;;;16.87;75.25;95260.14;1779716;80;21035;-65
2022/08/01 01:13:37;;;;;;;2.37;1.35;;;;;;;16.89;75.15;95260.08;1779500;80;21496;-65
2022/08/01 01:16:14;;;;;;;1.80;1.40;;;;;;;16.82;74.80;95263.02;1779562;81;21571;-65
2022/08/01 01:18:48;;;;;;;1.37;1.27;;;;;;;16.79;75.25;95266.32;1779385;80;21492;-65
2022/08/01 01:21:20;;;;;;;1.12;1.07;;;;;;;16.73;75.81;95273.23;1779599;81;21090;-65
2022/08/01 01:23:59;;;;;;;1.10;1.00;;;;;;;16.65;76.29;95265.13;1780057;81;21094;-65
2022/08/01 01:27:05;;;;;;;0.80;0.75;;;;;;;16.67;76.25;95265.06;1779598;80;21015;-66
2022/08/01 01:29:37;;;;;;;1.00;0.80;;;;;;;16.63;76.31;95263.03;1779312;81;20983;-65
2022/08/01 01:32:21;;;;;;;0.57;0.57;;;;;;;16.51;76.80;95272.92;1779732;80;21126;-65
2022/08/01 01:34:51;;;;;;;0.60;0.60;;;;;;;16.49;76.93;95268.61;1779423;81;21019;-65
2022/08/01 01:37:24;;;;;;;0.55;0.50;;;;;;;16.47;77.08;95269.14;1779596;80;21035;-65
2022/08/01 01:39:53;;;;;;;0.50;0.50;;;;;;;16.46;77.62;95272.75;1779733;81;21023;-65
2022/08/01 01:42:22;;;;;;;1.00;0.57;;;;;;;16.47;77.49;95270.00;1779615;80;21010;-65
2022/08/01 01:44:51;;;;;;;0.50;0.50;;;;;;;16.43;77.82;95271.95;1751336;81;21536;-65
2022/08/01 01:47:18;;;;;;;0.50;0.50;;;;;;;16.44;78.32;95278.14;1779389;81;20986;-66
2022/08/01 01:49:47;;;;;;;0.45;0.45;;;;;;;16.49;78.24;95273.94;1780858;80;21093;-65
2022/08/01 01:52:16;;;;;;;0.40;0.40;;;;;;;16.54;78.12;95274.58;1785102;80;21031;-66
2022/08/01 01:54:47;;;;;;;1.45;0.57;;;;;;;16.53;78.50;95272.84;1784851;80;21019;-65
2022/08/01 01:57:17;;;;;;;0.55;0.55;;;;;;;16.49;78.66;95272.61;1785075;80;21461;-65
2022/08/01 01:59:46;;;;;;;0.62;0.62;;;;;;;16.38;79.61;95275.78;1784967;80;21086;-66
2022/08/01 02:02:15;;;;;;;0.80;0.80;;;;;;;16.39;78.99;95271.69;1784808;80;21030;-65
2022/08/01 02:04:45;;;;;;;1.27;0.60;;;;;;;16.38;79.04;95269.13;1785000;80;20987;-66
2022/08/01 02:07:17;;;;;;;1.22;1.00;;;;;;;16.38;79.13;95274.44;1785093;80;21018;-65
2022/08/01 02:09:46;;;;;;;1.52;1.42;;;;;;;16.35;78.89;95269.23;1785135;80;21041;-65
2022/08/01 02:12:15;;;;;;;1.70;1.60;;;;;;;16.37;78.20;95270.03;1785248;80;21006;-65
2022/08/01 02:14:44;;;;;;;1.72;1.62;;;;;;;16.41;78.44;95275.16;1784925;80;21017;-65
2022/08/01 02:17:15;;;;;;;1.40;1.30;;;;;;;16.39;78.30;95274.36;1784715;80;20999;-65
2022/08/01 02:19:42;;;;;;;2.30;1.37;;;;;;;16.37;78.26;95270.03;1785070;80;21010;-65
2022/08/01 02:22:20;;;;;;;1.60;1.50;;;;;;;16.40;78.10;95276.10;1784838;80;21022;-65
2022/08/01 02:25:25;;;;;;;1.55;1.45;;;;;;;16.39;78.04;95274.83;1784890;80;20979;-65
2022/08/01 02:28:13;;;;;;;2.05;1.60;;;;;;;16.37;78.28;95279.35;1785032;80;21023;-65
2022/08/01 02:30:44;;;;;;;2.45;1.40;;;;;;;16.36;78.08;95282.97;1784627;80;21022;-65
2022/08/01 02:33:18;;;;;;;1.30;1.20;;;;;;;16.42;78.19;95278.67;1732430;83;21054;-65
2022/08/01 02:35:52;;;;;;;1.40;1.32;;;;;;;16.37;77.64;95280.21;1701774;84;21007;-65
2022/08/01 02:38:23;;;;;;;1.12;1.02;;;;;;;16.30;77.79;95283.23;1701723;84;21034;-65
2022/08/01 02:40:53;;;;;;;2.67;1.10;;;;;;;16.30;77.60;95286.75;1724520;83;20998;-65
2022/08/01 02:43:23;;;;;;;0.80;0.80;;;;;;;16.28;77.57;95282.43;1724354;83;20998;-65
2022/08/01 02:45:54;;;;;;;0.80;0.80;;;;;;;16.28;77.29;95284.66;1724433;83;20987;-65
2022/08/01 02:48:24;;;;;;;0.80;0.80;;;;;;;16.33;77.39;95293.29;1724053;83;21079;-65
2022/08/01 02:50:55;;;;;;;0.90;0.90;;;;;;;16.31;76.74;95288.50;1721005;83;21039;-66
2022/08/01 02:53:25;;;;;;;0.93;0.93;;;;;;;16.32;76.91;95291.55;1716454;83;21075;-65
2022/08/01 02:55:54;;;;;;;1.87;1.10;;;;;;;16.32;76.63;95295.53;1686700;84;21011;-65
2022/08/01 02:58:23;;;;;;;0.95;0.95;;;;;;;16.35;76.64;95295.86;1716331;83;21023;-65
2022/08/01 03:00:51;;;;;;;1.40;1.30;;;;;;;16.38;76.46;95293.08;1716528;84;21018;-65
2022/08/01 03:03:18;;;;;;;1.60;1.50;;;;;;;16.37;76.75;95300.18;1716380;83;21524;-65
2022/08/01 03:05:46;;;;;;;2.95;1.47;;;;;;;16.34;76.66;95297.66;1716316;83;21047;-65
2022/08/01 03:08:16;;;;;;;1.60;1.50;;;;;;;16.33;76.71;95299.95;1716455;84;20979;-65
2022/08/01 03:10:46;;;;;;;1.47;1.37;;;;;;;16.32;76.75;95297.34;1686401;84;21064;-65
2022/08/01 03:13:14;;;;;;;1.32;1.22;;;;;;;16.31;76.88;95303.61;1716277;84;20987;-65
2022/08/01 03:15:43;;;;;;;1.02;1.02;;;;;;;16.28;77.25;95303.28;1716508;84;20987;-65
2022/08/01 03:18:12;;;;;;;1.10;1.00;;;;;;;16.24;77.15;95297.69;1716316;83;21063;-65
2022/08/01 03:20:40;;;;;;;0.78;0.78;;;;;;;16.26;77.07;95301.62;1716500;83;20975;-65
2022/08/01 03:23:10;;;;;;;0.82;0.82;;;;;;;16.26;77.27;95307.81;1716675;83;21023;-65
2022/08/01 03:25:41;;;;;;;1.05;0.70;;;;;;;16.23;77.05;95306.16;1716578;83;21019;-65
2022/08/01 03:28:12;;;;;;;0.93;0.80;;;;;;;16.30;76.90;95301.39;1716374;83;21036;-65
2022/08/01 03:30:41;;;;;;;0.90;0.60;;;;;;;16.32;76.94;95303.52;1716521;83;21051;-65
2022/08/01 03:33:07;;;;;;;0.85;0.85;;;;;;;16.32;76.55;95305.33;1716067;83;21022;-65
2022/08/01 03:35:39;;;;;;;1.00;0.80;;;;;;;16.30;76.66;95308.52;1686461;84;21078;-65
2022/08/01 03:38:10;;;;;;;1.15;1.05;;;;;;;16.33;76.78;95305.27;1716495;83;21039;-65
2022/08/01 03:40:58;;;;;;;0.80;0.80;;;;;;;16.30;76.27;95306.72;1716440;83;21015;-65
2022/08/01 03:43:36;;;;;;;1.25;0.70;;;;;;;16.29;76.53;95311.66;1716515;83;21043;-65
2022/08/01 03:46:11;;;;;;;1.27;0.70;;;;;;;16.34;76.85;95316.30;1715535;84;21035;-65
2022/08/01 03:48:42;;;;;;;0.70;0.70;;;;;;;16.37;76.09;95317.48;1716149;83;21582;-65
2022/08/01 03:51:10;;;;;;;1.22;0.50;;;;;;;16.32;75.91;95314.65;1716361;83;21035;-65
2022/08/01 03:53:39;;;;;;;0.62;0.57;;;;;;;16.29;75.93;95325.44;1716356;83;21023;-65
2022/08/01 03:56:08;;;;;;;0.72;0.50;;;;;;;16.28;76.12;95319.70;1716292;83;21043;-65
2022/08/01 03:58:38;;;;;;;0.40;0.40;;;;;;;16.27;75.87;95325.97;1716452;83;21556;-65
2022/08/01 04:01:09;;;;;;;1.35;0.40;;;;;;;16.32;76.19;95323.97;1716378;83;21509;-65
2022/08/01 04:03:36;;;;;;;0.40;0.40;;;;;;;16.37;75.94;95321.95;1716395;83;20999;-65
2022/08/01 04:06:10;;;;;;;1.82;1.12;;;;;;;16.46;75.88;95329.53;1716375;83;21059;-65
2022/08/01 04:08:38;;;;;;;;;;;;;;;16.48;75.70;95325.45;1719080;84;21000;-65
2022/08/01 04:11:04;;;;;;;0.50;0.50;;;;;;;16.53;75.70;95320.33;1715888;84;20113;-65
2022/08/01 04:13:32;;;;;;;0.40;0.40;;;;;;;16.53;75.46;95328.33;1716353;83;21051;-65
2022/08/01 04:16:00;;;;;;;0.42;0.42;;;;;;;16.56;75.58;95319.33;1716342;83;21011;-66
2022/08/01 04:18:27;;;;;;;1.35;0.40;;;;;;;16.66;75.73;95320.15;1716019;83;21063;-65
2022/08/01 04:20:53;;;;;;;0.57;0.57;;;;;;;16.75;75.76;95313.98;1716449;84;21035;-65
2022/08/01 04:23:24;;;;;;;0.50;0.50;;;;;;;16.84;75.34;95314.92;1716049;83;21087;-65
2022/08/01 04:25:52;;;;;;;0.82;0.57;;;;;;;16.87;75.27;95314.77;1716516;84;21034;-65
2022/08/01 04:28:21;;;;;;;0.90;0.50;;;;;;;16.84;75.08;95314.92;1716347;83;21075;-65
2022/08/01 04:30:50;;;;;;;0.78;0.60;;;;;;;16.88;74.86;95308.49;1716376;83;20995;-65
2022/08/01 04:33:19;;;;;;;0.82;0.53;;;;;;;16.84;74.56;95311.78;1716286;84;21059;-65
2022/08/01 04:35:49;;;;;;;0.78;0.78;;;;;;;16.85;74.50;95308.64;1716094;83;21142;-65
2022/08/01 04:38:20;;;;;;;0.78;0.60;;;;;;;16.84;75.08;95314.45;1716276;83;21488;-65
2022/08/01 04:40:50;;;;;;;0.60;0.57;;;;;;;16.83;75.03;95314.06;1716502;83;21003;-65
2022/08/01 04:43:18;;;;;;;0.50;0.50;;;;;;;16.88;74.26;95313.82;1716319;83;21031;-65
2022/08/01 04:45:46;;;;;;;0.40;0.40;;;;;;;16.94;74.62;95318.02;1716398;83;20983;-65
2022/08/01 04:48:22;;;;;;;0.60;0.60;;;;;;;16.98;74.44;95316.44;1716086;84;21742;-65
2022/08/01 04:50:46;;;;;;;0.50;0.50;;;;;;;17.01;74.37;95321.64;1717302;83;21035;-66
2022/08/01 04:53:19;;;;;;;0.75;0.70;;;;;;;17.02;74.29;95319.36;1724273;83;21488;-66
2022/08/01 04:55:46;;;;;;;0.60;0.60;;;;;;;17.04;74.17;95314.83;1724414;83;21019;-65
2022/08/01 04:58:14;;;;;;;0.85;0.70;;;;;;;17.04;74.13;95317.49;1724180;82;20995;-65
2022/08/01 05:00:42;;;;;;;0.93;0.70;;;;;;;17.01;74.12;95322.09;1724393;83;21511;-65
2022/08/01 05:03:08;;;;;;;0.78;0.60;;;;;;;16.99;73.92;95319.52;1723945;83;21142;-65
2022/08/01 05:05:35;;;;;;;1.15;0.80;;;;;;;17.03;74.83;95318.89;1724050;82;21082;-65
2022/08/01 05:08:02;;;;;;;0.80;0.80;;;;;;;17.06;74.63;95326.28;1724358;83;21505;-65
2022/08/01 05:10:28;;;;;;;0.72;0.70;;;;;;;17.09;74.21;95318.61;1724336;83;21011;-65
2022/08/01 05:12:55;;;;;;;0.95;0.65;;;;;;;17.09;74.09;95325.27;1724279;83;21547;-66
2022/08/01 05:15:22;;;;;;;0.80;0.62;;;;;;;17.13;74.14;95321.50;1724105;83;21051;-65
2022/08/01 05:17:49;;;;;;;0.60;0.60;;;;;;;17.14;74.24;95319.72;1724255;82;20995;-65
2022/08/01 05:20:16;;;;;;;0.70;0.70;;;;;;;17.17;74.24;95319.09;1724059;83;21062;-65
2022/08/01 05:22:43;;;;;;;0.70;0.70;;;;;;;17.21;74.12;95323.79;1724250;83;21071;-65
2022/08/01 05:25:10;;;;;;;0.90;0.90;;;;;;;17.25;73.94;95322.23;1724416;83;21023;-65
2022/08/01 05:27:40;;;;;;;0.93;0.82;;;;;;;17.33;73.76;95327.19;1724354;83;21488;-66
2022/08/01 05:30:08;;;;;;;0.80;0.80;;;;;;;17.35;73.97;95328.46;1724139;83;21154;-66
2022/08/01 05:32:36;;;;;;;1.10;1.00;;;;;;;17.39;73.78;95326.91;1724216;83;21018;-65
2022/08/01 05:35:04;;;;;;;0.98;0.80;;;;;;;17.42;73.75;95329.41;1724284;83;21038;-66
2022/08/01 05:37:31;;;;;;;0.82;0.82;;;;;;;17.44;73.56;95331.54;1724324;83;21074;-65
2022/08/01 05:39:58;;;;;;;0.70;0.70;;;;;;;17.44;73.65;95330.20;1724310;83;21101;-65
2022/08/01 05:42:25;;;;;;;2.45;0.80;;;;;;;17.43;73.64;95331.61;1724179;83;21015;-66
2022/08/01 05:44:51;;;;;;;0.68;0.62;;;;;;;17.40;73.48;95335.29;1724167;83;21042;-66
2022/08/01 05:47:19;;;;;;;2.90;1.00;;;;;;;17.41;73.88;95337.03;1724125;83;21070;-65
2022/08/01 05:49:46;;;;;;;2.02;0.80;;;;;;;17.43;73.65;95332.94;1724163;82;21051;-66
2022/08/01 05:52:13;;;;;;;0.95;0.80;;;;;;;17.38;73.43;95334.97;1733694;83;21548;-66
2022/08/01 05:54:40;;;;;;;0.80;0.80;;;;;;;17.40;73.62;95341.95;1706827;84;21050;-66
2022/08/01 05:57:07;;;;;;;0.90;0.90;;;;;;;17.40;73.68;95339.77;1707025;84;21062;-65
2022/08/01 05:59:33;;;;;;;1.70;0.85;;;;;;;17.35;73.92;95343.13;1737905;82;21018;-66
2022/08/01 06:02:01;;;;;;;1.17;0.70;;;;;;;17.34;73.60;95345.38;1706690;84;21030;-66
2022/08/01 06:04:28;;;;;;;0.90;0.90;;;;;;;17.33;73.69;95344.53;1737620;83;21022;-66
2022/08/01 06:06:54;;;;;;;1.77;0.80;;;;;;;17.27;73.64;95343.03;1706765;83;21046;-65
2022/08/01 06:09:21;;;;;;;1.80;1.10;;;;;;;17.22;74.04;95347.72;1737394;83;21102;-66
2022/08/01 06:11:48;;;;;;;0.95;0.90;;;;;;;17.19;74.75;95351.87;1706855;84;21075;-66
2022/08/01 06:14:15;;;;;;;1.07;1.00;;;;;;;17.23;74.90;95352.58;1737809;82;21029;-66
2022/08/01 06:16:42;;;;;;;1.47;0.88;;;;;;;17.18;74.56;95354.61;1706999;84;21505;-66
2022/08/01 06:19:09;;;;;;;2.83;0.82;;;;;;;17.15;74.86;95354.77;1737516;83;21038;-65
2022/08/01 06:21:35;;;;;;;0.80;0.80;;;;;;;17.19;75.09;95354.55;1706862;84;21011;-66
2022/08/01 06:24:03;;;;;;;1.20;0.80;;;;;;;17.22;75.00;95355.72;1737794;82;21046;-65
2022/08/01 06:26:31;;;;;;;2.08;0.80;;;;;;;17.26;74.91;95353.31;1706872;84;21027;-65
2022/08/01 06:28:57;;;;;;;1.17;1.07;;;;;;;17.31;75.00;95359.73;1737496;82;21054;-66
2022/08/01 06:31:24;;;;;;;1.40;0.90;;;;;;;17.38;75.06;95358.50;1706880;84;20963;-66
2022/08/01 06:33:51;;;;;;;0.80;0.80;;;;;;;17.42;74.53;95360.56;1737596;82;21026;-65
2022/08/01 06:36:17;;;;;;;1.17;1.00;;;;;;;17.48;74.77;95365.58;1706866;84;21078;-66
2022/08/01 06:38:44;;;;;;;1.57;0.90;;;;;;;17.49;74.41;95367.33;1737716;82;21007;-66
2022/08/01 06:41:11;;;;;;;0.82;0.82;;;;;;;17.49;74.34;95371.33;1706648;84;21543;-66
2022/08/01 06:43:37;;;;;;;2.25;0.80;;;;;;;17.56;74.17;95370.53;1706764;84;20979;-66
2022/08/01 06:46:04;;;;;;;0.95;0.88;;;;;;;17.62;74.13;95372.44;1737727;82;21416;-66
2022/08/01 06:48:31;;;;;;;1.05;0.70;;;;;;;17.70;74.02;95370.72;1706748;84;21010;-66
2022/08/01 06:51:13;;;;;;;0.80;0.72;;;;;;;17.77;73.47;95372.63;1706307;83;21023;-66
2022/08/01 06:53:39;;;;;;;2.00;0.80;;;;;;;17.82;72.46;95374.63;1701565;84;21042;-66
2022/08/01 06:56:08;;;;;;;0.90;0.62;;;;;;;17.80;72.44;95372.49;1724669;83;21026;-66
2022/08/01 06:58:35;;;;;;;0.68;0.68;;;;;;;17.84;72.22;95375.37;1724299;83;21042;-66
2022/08/01 07:01:05;;;;;;;0.60;0.60;;;;;;;17.79;72.32;95370.72;1724449;83;20988;-66
2022/08/01 07:03:33;;;;;;;0.88;0.85;;;;;;;17.84;72.50;95374.05;1724296;83;21018;-66
2022/08/01 07:06:00;;;;;;;1.20;0.80;;;;;;;17.85;72.24;95376.65;1723997;83;21504;-66
2022/08/01 07:08:26;;;;;;;1.50;0.80;;;;;;;17.85;71.91;95383.33;1724338;83;21054;-66
2022/08/01 07:10:53;;;;;;;0.80;0.80;;;;;;;17.76;71.79;95385.08;1724209;83;21035;-65
2022/08/01 07:13:24;;;;;;;1.87;0.98;;;;;;;17.73;71.95;95383.42;1724554;83;20999;-66
2022/08/01 07:15:52;;;;;;;2.10;0.90;;;;;;;17.70;71.69;95388.92;1724481;83;21069;-66
2022/08/01 07:18:19;;;;;;;1.22;0.82;;;;;;;17.66;72.15;95390.48;1724263;82;21067;-65
2022/08/01 07:20:46;;;;;;;4.10;1.00;;;;;;;17.64;72.17;95395.91;1724478;82;21091;-66
2022/08/01 07:23:13;;;;;;;3.02;0.98;;;;;;;17.64;72.33;95395.91;1724472;83;21047;-65
2022/08/01 07:25:40;;;;;;;4.22;1.60;;;;;;;17.63;72.53;95391.50;1724135;83;20991;-66
2022/08/01 07:28:07;;;;;;;2.67;1.00;;;;;;;17.66;72.90;95403.82;1724560;83;21034;-66
2022/08/01 07:30:34;;;;;;;0.70;0.65;;;;;;;17.63;73.08;95395.50;1724405;83;21039;-66
2022/08/01 07:33:02;;;;;;;0.80;0.80;;;;;;;17.62;73.04;95403.59;1724090;82;21088;-66
2022/08/01 07:35:28;;;;;;;2.12;1.37;;;;;;;17.41;73.66;95398.37;1695902;83;21023;-65
2022/08/01 07:37:55;;;;;;;0.70;0.70;;;;;;;17.37;75.02;95395.45;1724643;83;21042;-65
2022/08/01 07:40:22;;;;;;;1.70;0.72;;;;;;;17.36;74.88;95397.73;1723997;83;21039;-65
2022/08/01 07:42:49;;;;;;;0.70;0.70;;;;;;;17.29;74.15;95397.16;1724355;83;21098;-66
2022/08/01 07:45:16;;;;;;;0.98;0.88;;;;;;;17.25;74.81;95398.23;1724286;83;21122;-65
2022/08/01 07:47:44;;;;;;;1.20;0.90;;;;;;;17.30;76.16;95401.54;1724079;83;21022;-66
2022/08/01 07:50:12;;;;;;;2.55;1.00;;;;;;;17.41;76.47;95402.38;1724221;82;21050;-65
2022/08/01 07:52:39;;;;;;;1.82;1.00;;;;;;;17.49;77.09;95406.00;1719030;83;21516;-65
2022/08/01 07:55:07;;;;;;;0.95;0.88;;;;;;;17.56;76.75;95408.73;1716437;83;21545;-65
2022/08/01 07:57:35;;;;;;;1.07;1.07;;;;;;;17.61;76.57;95412.05;1716372;83;21019;-65
2022/08/01 08:00:05;;;;;;;1.77;1.00;;;;;;;17.67;76.56;95409.09;1716624;83;20999;-65
2022/08/01 08:02:33;;;;;;;1.72;0.95;;;;;;;17.69;76.13;95410.36;1716378;83;21031;-65
2022/08/01 08:04:59;;;;;;;1.72;1.12;;;;;;;17.65;76.52;95408.77;1716384;83;21493;-65
2022/08/01 08:07:26;;;;;;;4.47;1.17;;;;;;;17.65;77.05;95406.97;1716339;83;21517;-66
2022/08/01 08:09:53;;;;;;;1.55;1.20;;;;;;;17.70;77.48;95410.27;1716707;83;21003;-65
2022/08/01 08:12:19;;;;;;;1.62;1.35;;;;;;;17.80;77.09;95406.71;1716427;83;21513;-65
2022/08/01 08:14:46;;;;;;;1.47;1.20;;;;;;;17.91;76.90;95408.36;1716360;83;21014;-65
2022/08/01 08:17:13;;;;;;;1.50;1.40;;;;;;;18.00;76.42;95410.19;1716128;83;21104;-65
2022/08/01 08:19:39;;;;;;;1.20;1.07;;;;;;;18.01;76.15;95413.24;1716262;83;20995;-65
2022/08/01 08:22:08;;;;;;;1.00;1.00;;;;;;;18.04;75.81;95409.08;1716334;83;21015;-65
2022/08/01 08:24:36;;;;;;;1.87;1.20;;;;;;;18.03;75.71;95407.36;1716413;83;21572;-65
2022/08/01 08:27:03;;;;;;;1.30;1.20;;;;;;;18.01;76.22;95416.77;1716364;83;21027;-65
2022/08/01 08:29:32;;;;;;;1.40;1.30;;;;;;;18.05;76.46;95413.02;1716348;84;21566;-65
2022/08/01 08:32:00;;;;;;;1.57;1.25;;;;;;;18.02;75.79;95419.85;1716366;83;21075;-65
2022/08/01 08:34:29;;;;;;;2.75;1.40;;;;;;;18.01;75.69;95416.77;1716301;83;21445;-66
2022/08/01 08:36:57;;;;;;;1.82;1.55;;;;;;;17.95;76.49;95420.63;1716474;84;21067;-65
2022/08/01 08:39:24;;;;;;;2.12;1.60;;;;;;;18.01;76.75;95418.58;1716381;83;21039;-65
2022/08/01 08:41:51;;;;;;;3.15;1.87;;;;;;;18.10;76.16;95423.47;1716314;83;21027;-65
2022/08/01 08:44:19;;;;;;;1.87;1.40;;;;;;;18.18;75.77;95427.08;1716452;83;21524;-66
2022/08/01 08:46:55;;;;;;;1.72;1.50;;;;;;;18.19;75.41;95427.45;1716386;83;21042;-65
2022/08/01 08:49:23;;;;;;;1.70;1.60;;;;;;;18.24;76.01;95429.42;1715440;84;21560;-65
2022/08/01 08:51:52;;;;;;;2.12;1.92;;;;;;;18.23;75.54;95430.38;1716209;83;21039;-65
2022/08/01 08:54:23;;;;;;;2.30;1.90;;;;;;;18.22;75.16;95429.96;1716330;84;21540;-66
2022/08/01 08:56:53;;;;;;;2.75;2.10;;;;;;;18.21;75.13;95428.25;1716227;83;21030;-66
2022/08/01 08:59:20;;;;;;;2.10;1.90;;;;;;;18.21;75.18;95426.44;1716351;83;21521;-65
2022/08/01 09:01:49;;;;;;;2.45;2.10;;;;;;;18.26;75.18;95428.40;1716101;83;21169;-65
2022/08/01 09:04:16;;;;;;;4.80;1.90;;;;;;;18.29;74.81;95430.91;1716255;83;21042;-65
2022/08/01 09:06:43;;;;;;;1.62;1.52;;;;;;;18.28;75.61;95431.86;1715994;83;21043;-66
2022/08/01 09:09:10;;;;;;;1.80;1.67;;;;;;;18.35;75.80;95429.27;1716654;83;20976;-66
2022/08/01 09:11:37;;;;;;;2.45;1.30;;;;;;;18.42;75.61;95433.83;1716296;83;21059;-65
2022/08/01 09:14:14;;;;;;;2.42;1.42;;;;;;;18.54;74.56;95429.16;1716559;83;21023;-66
2022/08/01 09:16:44;;;;;;;1.40;1.30;;;;;;;18.56;73.00;95424.60;1716596;83;21035;-66
2022/08/01 09:19:18;;;;;;;1.60;1.10;;;;;;;18.65;73.86;95429.06;1716641;83;21039;-66
2022/08/01 09:21:59;;;;;;;1.67;1.05;;;;;;;18.89;71.46;95420.25;1716426;84;21030;-66
2022/08/01 09:24:28;;;;;;;1.85;1.30;;;;;;;19.16;72.15;95416.06;1716497;83;21051;-66
2022/08/01 09:26:56;;;;;;;2.35;1.12;;;;;;;19.46;72.51;95414.83;1716519;83;21022;-65
2022/08/01 09:29:31;;;;;;;1.05;1.00;;;;;;;19.59;68.21;95416.81;1716276;83;21103;-66
2022/08/01 09:31:59;;;;;;;1.98;1.22;;;;;;;19.43;69.50;95415.49;1716531;83;21011;-65
2022/08/01 09:34:30;;;;;;;1.80;1.40;;;;;;;19.48;68.21;95417.44;1716575;84;21520;-66
2022/08/01 09:36:59;;;;;;;1.50;1.22;;;;;;;19.48;68.75;95424.12;1716444;83;21023;-66
2022/08/01 09:39:29;;;;;;;1.75;1.30;;;;;;;19.48;69.24;95425.46;1716255;83;21015;-66
2022/08/01 09:41:59;;;;;;;3.00;1.37;;;;;;;19.36;68.80;95435.03;1716491;84;21030;-65
2022/08/01 09:44:44;;;;;;;6.37;1.60;;;;;;;19.38;69.79;95435.81;1716937;83;21143;-66
2022/08/01 09:47:12;;;;;;;1.37;1.27;;;;;;;19.35;68.97;95437.77;1716633;84;20999;-65
2022/08/01 09:49:41;;;;;;;2.25;1.15;;;;;;;19.24;69.87;95442.39;1716568;83;21019;-66
2022/08/01 09:52:14;;;;;;;1.30;1.20;;;;;;;19.12;69.76;95443.91;1716354;83;21110;-66
2022/08/01 09:54:43;;;;;;;2.02;1.12;;;;;;;18.98;70.05;95447.84;1716484;84;21038;-65
2022/08/01 09:57:14;;;;;;;1.90;1.40;;;;;;;18.71;69.91;95456.34;1716596;83;21469;-66
2022/08/01 09:59:45;;;;;;;1.87;1.12;;;;;;;18.59;70.49;95456.98;1716226;83;21078;-66
2022/08/01 10:02:15;;;;;;;1.15;1.15;;;;;;;18.52;70.58;95460.46;1716494;83;21035;-66
2022/08/01 10:04:51;;;;;;;2.85;1.95;;;;;;;18.43;71.01;95462.27;1686581;84;21572;-66
2022/08/01 10:07:18;;;;;;;2.17;1.50;;;;;;;18.28;71.11;95455.04;1716383;83;21019;-65
2022/08/01 10:09:47;;;;;;;2.20;1.65;;;;;;;18.26;71.37;95462.26;1716192;84;21051;-66
2022/08/01 10:12:18;;;;;;;1.47;1.37;;;;;;;18.20;72.57;95451.42;1716901;83;21035;-66
2022/08/01 10:14:55;;;;;;;1.87;1.65;;;;;;;18.05;72.11;95462.41;1716365;83;21342;-65
2022/08/01 10:17:25;;;;;;;1.75;1.65;;;;;;;17.97;72.42;95462.38;1716518;83;21070;-66
2022/08/01 10:19:54;;;;;;;2.20;1.37;;;;;;;17.88;72.30;95465.91;1716468;83;21016;-65
2022/08/01 10:22:24;;;;;;;3.05;1.37;;;;;;;17.79;72.69;95458.34;1716214;83;21043;-66
2022/08/01 10:24:55;;;;;;;1.27;1.17;;;;;;;17.74;73.17;95457.70;1716440;83;21031;-65
2022/08/01 10:27:23;;;;;;;1.85;1.12;;;;;;;17.78;74.25;95457.92;1716469;84;20984;-65
2022/08/01 10:30:03;;;;;;;1.00;1.00;;;;;;;17.93;73.50;95463.02;1716213;84;21509;-65
2022/08/01 10:32:26;;;;;;;1.10;1.10;;;;;;;18.04;73.52;95463.80;1715963;84;21034;-65
2022/08/01 10:34:55;;;;;;;2.40;1.10;;;;;;;18.25;73.86;95468.56;1716420;83;21533;-65
2022/08/01 10:37:22;;;;;;;1.67;1.30;;;;;;;18.40;73.06;95465.09;1716349;83;21080;-66
2022/08/01 10:39:53;;;;;;;3.62;1.30;;;;;;;18.50;72.21;95463.68;1716542;83;21031;-66
2022/08/01 10:42:20;;;;;;;1.35;1.30;;;;;;;18.65;73.12;95464.69;1716343;83;21504;-65
2022/08/01 10:44:48;;;;;;;1.20;1.20;;;;;;;18.56;71.14;95459.34;1716617;83;21055;-66
2022/08/01 10:47:23;;;;;;;1.30;1.20;;;;;;;18.55;71.54;95461.62;1716510;83;21016;-66
2022/08/01 10:50:13;;;;;;;2.70;1.35;;;;;;;18.74;72.14;95468.20;1716521;84;21075;-65
2022/08/01 10:52:40;;;;;;;1.42;1.00;;;;;;;18.92;71.16;95461.52;1716418;83;21504;-66
2022/08/01 10:55:11;;;;;;;2.17;1.12;;;;;;;19.03;70.39;95455.99;1716207;84;21067;-66
2022/08/01 10:57:46;;;;;;;1.07;0.98;;;;;;;19.23;70.64;95442.87;1716434;83;21015;-66
2022/08/01 11:00:21;;;;;;;0.90;0.90;;;;;;;19.60;70.14;95434.59;1716591;83;20983;-66
2022/08/01 11:03:03;;;;;;;1.00;1.00;;;;;;;19.91;68.57;95437.77;1716120;83;21015;-66
2022/08/01 11:05:34;;;;;;;1.45;1.35;;;;;;;19.97;66.39;95435.20;1716237;84;21008;-66
2022/08/01 11:08:13;;;;;;;1.37;1.27;;;;;;;19.95;66.75;95432.59;1716215;83;21098;-66
2022/08/01 11:10:43;;;;;;;1.35;1.25;;;;;;;20.26;67.47;95430.34;1714581;84;21536;-65
2022/08/01 11:13:11;;;;;;;4.95;1.20;;;;;;;20.41;65.07;95429.91;1716394;83;20992;-66
2022/08/01 11:15:41;;;;;;;1.90;1.25;;;;;;;20.72;65.68;95433.44;1716463;84;21035;-66
2022/08/01 11:18:29;;;;;;;1.45;1.35;;;;;;;20.97;64.18;95423.39;1716374;83;21012;-66
2022/08/01 11:21:01;;;;;;;3.17;1.20;;;;;;;21.32;65.02;95418.48;1716325;83;21572;-65
2022/08/01 11:23:29;;;;;;;2.10;1.12;;;;;;;21.92;61.01;95419.13;1716395;83;21034;-66
2022/08/01 11:26:04;;;;;;;1.40;1.20;;;;;;;22.49;59.57;95418.03;1716487;83;21031;-66
2022/08/01 11:28:31;;;;;;;1.07;1.05;;;;;;;22.85;60.21;95410.09;1716550;83;20960;-66
2022/08/01 11:31:09;;;;;;;1.65;1.55;;;;;;;22.99;56.58;95417.73;1716254;83;21469;-66
2022/08/01 11:33:48;;;;;;;1.40;1.30;;;;;;;22.87;57.21;95412.69;1716443;83;21509;-66
2022/08/01 11:36:17;;;;;;;1.70;1.30;;;;;;;22.90;57.54;95407.94;1716237;83;21007;-66
2022/08/01 11:39:01;;;;;;;1.40;1.30;;;;;;;23.05;59.07;95411.41;1716184;84;21029;-66
2022/08/01 11:41:31;;;;;;;1.40;1.30;;;;;;;23.33;58.12;95408.09;1716385;83;21532;-66
2022/08/01 11:44:15;;;;;;;1.80;1.45;;;;;;;23.44;55.54;95410.88;1716432;83;20984;-66
2022/08/01 11:47:07;;;;;;;2.00;1.50;;;;;;;23.68;57.64;95413.60;1716546;84;21083;-66